createdAt,value
2023-05-21T00:00:07.699Z,74.79
2023-05-21T00:15:56.440Z,74.73
2023-05-21T00:31:51.579Z,74.70
2023-05-21T00:46:54.099Z,74.51
2023-05-21T01:02:13.741Z,75.02
2023-05-21T01:17:17.006Z,75.01
2023-05-21T01:32:27.339Z,74.58
2023-05-21T01:47:32.544Z,74.68
2023-05-21T02:02:35.396Z,75.30
2023-05-21T02:17:53.185Z,76.23
2023-05-21T02:32:58.149Z,77.04
2023-05-21T02:48:15.552Z,77.70
2023-05-21T03:03:32.868Z,77.75
2023-05-21T03:20:08.324Z,77.48
2023-05-21T03:35:11.091Z,77.36
2023-05-21T04:25:02.361Z,75.73
2023-05-21T05:15:44.594Z,73.17
2023-05-21T05:31:01.962Z,72.21
2023-05-21T05:47:21.835Z,71.24
2023-05-21T06:20:17.862Z,69.09
2023-05-21T06:35:21.647Z,67.76
2023-05-21T07:07:52.173Z,63.66
2023-05-21T07:23:45.765Z,62.21
2023-05-21T07:38:48.620Z,60.22
2023-05-21T07:53:52.787Z,58.15
2023-05-21T08:09:11.972Z,55.70
2023-05-21T08:24:15.236Z,53.95
2023-05-21T08:39:18.066Z,52.39
2023-05-21T08:54:22.165Z,50.61
2023-05-21T09:09:34.069Z,49.96
2023-05-21T09:24:43.698Z,48.62
2023-05-21T09:57:04.547Z,46.89
2023-05-21T10:12:35.017Z,46.08
2023-05-21T10:27:38.484Z,45.45
2023-05-21T10:44:00.073Z,44.37
2023-05-21T10:59:34.125Z,43.82
2023-05-21T11:15:56.155Z,43.17
2023-05-21T11:49:09.279Z,41.41
2023-05-21T12:04:37.440Z,40.61
2023-05-21T12:20:58.169Z,39.84
2023-05-21T12:36:03.668Z,39.08
2023-05-21T12:51:57.335Z,38.71
2023-05-21T13:41:37.441Z,37.79
2023-05-21T13:56:41.015Z,37.38
2023-05-21T14:13:11.337Z,37.84
2023-05-21T14:28:47.357Z,37.79
2023-05-21T14:44:48.142Z,37.71
2023-05-21T15:00:16.573Z,37.27
2023-05-21T15:15:22.723Z,36.54
2023-05-21T15:30:40.362Z,36.13
2023-05-21T15:45:43.021Z,35.80
2023-05-21T16:01:00.365Z,36.07
2023-05-21T16:16:03.520Z,35.94
2023-05-21T16:31:57.736Z,36.26
2023-05-21T16:47:50.890Z,36.45
2023-05-21T17:02:54.330Z,36.24
2023-05-21T17:19:14.352Z,36.16
2023-05-21T17:34:18.285Z,36.67
2023-05-21T17:49:20.775Z,37.28
2023-05-21T18:04:23.418Z,38.00
2023-05-21T18:19:26.226Z,39.14
2023-05-21T18:34:29.202Z,40.17
2023-05-21T18:49:56.924Z,41.38
2023-05-21T19:05:51.211Z,42.10
2023-05-21T19:38:21.695Z,43.89
2023-05-21T19:54:39.606Z,44.32
2023-05-21T20:10:00.558Z,44.72
2023-05-21T20:25:54.362Z,45.39
2023-05-21T20:41:24.701Z,46.14
2023-05-21T20:57:38.157Z,46.82
2023-05-21T21:12:44.444Z,47.66
2023-05-21T21:45:24.392Z,49.36
2023-05-21T22:18:01.742Z,51.27
2023-05-21T22:52:04.581Z,52.60
2023-05-21T23:07:21.635Z,53.59
2023-05-21T23:32:57.152Z,54.67
2023-05-21T23:49:17.057Z,54.68
